createdAt,value
2022-09-15T00:01:47.670Z,98765.42
2022-09-15T00:04:16.887Z,98766.59
2022-09-15T00:06:55.833Z,98759.66
2022-09-15T00:09:30.572Z,98757.66
2022-09-15T00:12:02.333Z,98756.80
2022-09-15T00:14:32.204Z,98746.91
2022-09-15T00:17:01.331Z,98735.08
2022-09-15T00:19:32.333Z,98730.70
2022-09-15T00:22:07.938Z,98720.56
2022-09-15T00:24:39.383Z,98718.52
2022-09-15T00:27:08.955Z,98717.91
2022-09-15T00:29:38.383Z,98716.55
2022-09-15T00:32:07.715Z,98714.13
2022-09-15T00:34:38.413Z,98717.96
2022-09-15T00:37:14.024Z,98719.96
2022-09-15T00:39:46.787Z,98724.17
2022-09-15T00:42:21.330Z,98731.77
2022-09-15T00:44:52.250Z,98734.05
2022-09-15T00:47:26.791Z,98739.09
2022-09-15T00:50:01.887Z,98737.98
2022-09-15T00:52:43.030Z,98742.52
2022-09-15T00:55:26.924Z,98745.51
2022-09-15T00:58:03.438Z,98738.02
2022-09-15T01:00:33.326Z,98741.19
2022-09-15T01:03:03.978Z,98743.52
2022-09-15T01:05:42.015Z,98744.14
2022-09-15T01:08:24.855Z,98742.48
2022-09-15T01:10:56.629Z,98744.44
2022-09-15T01:13:29.494Z,98742.56
2022-09-15T01:22:53.216Z,98740.63
2022-09-15T01:25:53.319Z,98740.67
2022-09-15T01:28:37.830Z,98730.73
2022-09-15T01:31:29.567Z,98726.22
2022-09-15T01:34:18.497Z,98719.69
2022-09-15T01:37:18.166Z,98727.75
2022-09-15T01:39:50.285Z,98737.79
2022-09-15T01:42:22.961Z,98737.59
2022-09-15T01:45:06.920Z,98735.44
2022-09-15T01:47:36.789Z,98728.61
2022-09-15T01:50:23.734Z,98729.83
2022-09-15T01:52:59.610Z,98729.98
2022-09-15T01:55:38.224Z,98730.36
2022-09-15T01:58:46.094Z,98721.91
2022-09-15T02:01:26.778Z,98724.23
2022-09-15T02:04:19.281Z,98732.39
2022-09-15T02:07:16.711Z,98730.90
2022-09-15T02:09:54.730Z,98735.98
2022-09-15T02:13:01.684Z,98736.21
2022-09-15T02:15:39.071Z,98736.66
2022-09-15T02:18:16.103Z,98740.40
2022-09-15T02:20:54.909Z,98749.46
2022-09-15T02:23:45.588Z,98758.16
2022-09-15T02:26:25.457Z,98757.40
2022-09-15T02:28:58.509Z,98758.52
2022-09-15T02:31:30.932Z,98755.52
2022-09-15T02:34:07.225Z,98762.38
2022-09-15T02:36:35.821Z,98767.22
2022-09-15T02:39:09.509Z,98768.84
2022-09-15T02:41:42.028Z,98766.33
2022-09-15T02:44:15.374Z,98762.16
2022-09-15T02:46:45.648Z,98756.42
2022-09-15T02:49:19.685Z,98759.68
2022-09-15T02:51:47.775Z,98764.02
2022-09-15T02:54:19.457Z,98760.84
2022-09-15T02:56:47.826Z,98761.16
2022-09-15T02:59:17.353Z,98759.88
2022-09-15T03:01:45.444Z,98762.61
2022-09-15T03:04:14.064Z,98763.93
2022-09-15T03:06:44.106Z,98763.90
2022-09-15T03:09:17.722Z,98760.49
2022-09-15T03:11:49.002Z,98760.96
2022-09-15T03:14:17.142Z,98767.77
2022-09-15T03:16:45.179Z,98777.41
2022-09-15T03:19:13.524Z,98784.40
2022-09-15T03:21:46.986Z,98788.54
2022-09-15T03:24:19.314Z,98789.64
2022-09-15T03:26:49.653Z,98793.77
2022-09-15T03:29:20.851Z,98797.45
2022-09-15T03:31:52.647Z,98799.06
2022-09-15T03:34:22.774Z,98806.92
2022-09-15T03:37:09.316Z,98822.59
2022-09-15T03:39:47.093Z,98825.80
2022-09-15T03:42:16.131Z,98825.16
2022-09-15T03:45:05.602Z,98829.34
2022-09-15T03:47:39.908Z,98833.81
2022-09-15T03:50:10.178Z,98838.70
2022-09-15T03:52:38.730Z,98852.31
2022-09-15T03:55:16.384Z,98859.91
2022-09-15T03:57:59.598Z,98859.85
2022-09-15T04:00:31.836Z,98860.93
2022-09-15T04:03:07.136Z,98850.06
2022-09-15T04:05:37.328Z,98837.95
2022-09-15T04:08:05.909Z,98837.35
2022-09-15T04:10:38.947Z,98847.55
2022-09-15T04:13:13.014Z,98854.54
2022-09-15T04:15:45.383Z,98863.25
2022-09-15T04:18:19.782Z,98863.23
2022-09-15T04:20:48.722Z,98862.98
2022-09-15T04:23:18.453Z,98869.30
2022-09-15T04:25:56.823Z,98875.07
2022-09-15T04:28:26.768Z,98882.16
2022-09-15T04:31:03.914Z,98874.94
2022-09-15T04:34:00.493Z,98875.55
2022-09-15T04:36:39.679Z,98876.55
2022-09-15T04:39:39.560Z,98876.17
2022-09-15T04:42:08.233Z,98879.73
2022-09-15T04:44:36.467Z,98878.93
2022-09-15T04:47:08.113Z,98885.42
2022-09-15T04:49:45.505Z,98885.72
2022-09-15T04:52:26.889Z,98897.02
2022-09-15T04:55:00.219Z,98895.77
2022-09-15T04:57:32.142Z,98893.70
2022-09-15T05:00:14.160Z,98898.63
2022-09-15T05:02:46.179Z,98904.35
2022-09-15T05:05:18.360Z,98908.23
2022-09-15T05:07:57.138Z,98903.18
2022-09-15T05:10:35.340Z,98905.23
2022-09-15T05:13:21.271Z,98902.44
2022-09-15T05:15:52.168Z,98896.70
2022-09-15T05:18:32.531Z,98895.89
2022-09-15T05:21:12.281Z,98898.09
2022-09-15T05:23:48.951Z,98897.70
2022-09-15T05:26:20.046Z,98903.73
2022-09-15T05:28:47.802Z,98905.15
2022-09-15T05:31:22.974Z,98914.51
2022-09-15T05:33:54.307Z,98922.72
2022-09-15T05:36:25.694Z,98926.45
2022-09-15T05:38:57.186Z,98925.21
2022-09-15T05:41:26.939Z,98926.70
2022-09-15T05:43:59.261Z,98924.02
2022-09-15T05:46:32.249Z,98915.11
2022-09-15T05:49:03.489Z,98915.30
2022-09-15T05:51:37.216Z,98916.38
2022-09-15T05:54:09.820Z,98919.98
2022-09-15T05:56:40.765Z,98924.56
2022-09-15T05:59:08.991Z,98928.56
2022-09-15T06:01:39.322Z,98925.27
2022-09-15T06:04:07.901Z,98923.58
2022-09-15T06:06:38.754Z,98923.02
2022-09-15T06:09:06.754Z,98925.20
2022-09-15T06:11:35.180Z,98921.98
2022-09-15T06:14:04.177Z,98922.50
2022-09-15T06:16:34.725Z,98924.42
2022-09-15T06:19:04.318Z,98921.48
2022-09-15T06:21:35.282Z,98916.42
2022-09-15T06:24:07.572Z,98925.27
2022-09-15T06:26:35.746Z,98925.53
2022-09-15T06:29:05.622Z,98930.57
2022-09-15T06:31:39.060Z,98935.61
2022-09-15T06:36:54.403Z,98934.85
2022-09-15T06:39:22.316Z,98934.45
2022-09-15T06:42:02.307Z,98927.43
2022-09-15T06:44:34.760Z,98928.89
2022-09-15T06:47:03.043Z,98927.63
2022-09-15T06:49:31.330Z,98938.31
2022-09-15T06:52:02.345Z,98946.19
2022-09-15T06:54:31.442Z,98953.83
2022-09-15T06:56:59.596Z,98956.36
2022-09-15T06:59:28.568Z,98954.68
2022-09-15T07:02:05.245Z,98940.20
2022-09-15T07:04:37.304Z,98957.42
2022-09-15T07:07:05.299Z,98950.60
2022-09-15T07:09:34.515Z,98958.46
2022-09-15T07:12:03.413Z,98962.34
2022-09-15T07:14:31.212Z,98962.80
2022-09-15T07:16:59.007Z,98968.18
2022-09-15T07:19:27.435Z,98975.64
2022-09-15T07:22:03.462Z,98984.73
2022-09-15T07:24:31.735Z,98979.77
2022-09-15T07:27:00.970Z,98981.11
2022-09-15T07:29:28.827Z,98981.33
2022-09-15T07:31:57.955Z,98994.13
2022-09-15T07:34:26.026Z,98986.04
2022-09-15T07:36:55.447Z,98991.54
2022-09-15T07:39:26.333Z,98994.78
2022-09-15T07:41:55.346Z,98993.02
2022-09-15T07:44:23.175Z,98993.34
2022-09-15T07:46:52.908Z,98997.16
2022-09-15T07:49:21.017Z,99005.83
2022-09-15T07:51:48.917Z,99012.50
2022-09-15T07:54:21.093Z,99026.31
2022-09-15T07:56:51.329Z,99029.13
2022-09-15T07:59:19.033Z,99031.66
2022-09-15T08:01:47.727Z,99035.95
2022-09-15T08:04:16.021Z,99036.70
2022-09-15T08:06:44.058Z,99039.64
2022-09-15T08:09:14.893Z,99041.19
2022-09-15T08:11:45.580Z,99038.47
2022-09-15T08:14:15.367Z,99042.22
2022-09-15T08:16:45.732Z,99045.88
2022-09-15T08:19:14.445Z,99044.85
2022-09-15T08:21:43.342Z,99048.86
2022-09-15T08:24:11.239Z,99045.42
2022-09-15T08:26:39.576Z,99050.05
2022-09-15T08:29:08.271Z,99040.18
2022-09-15T08:31:36.370Z,99038.02
2022-09-15T08:34:07.270Z,99039.83
2022-09-15T08:36:35.080Z,99033.70
2022-09-15T08:39:05.336Z,99024.09
2022-09-15T08:41:42.235Z,99028.85
2022-09-15T08:44:31.778Z,99024.32
2022-09-15T08:47:25.254Z,99012.89
2022-09-15T08:50:08.031Z,99015.21
2022-09-15T08:52:45.505Z,99009.38
2022-09-15T08:55:21.819Z,99004.28
2022-09-15T08:57:54.512Z,99002.79
2022-09-15T09:00:22.973Z,99007.34
2022-09-15T09:03:06.787Z,99003.20
2022-09-15T09:06:09.856Z,98993.48
2022-09-15T09:09:00.423Z,98990.63
2022-09-15T09:11:49.635Z,98990.64
2022-09-15T09:14:41.543Z,99004.29
2022-09-15T09:17:45.809Z,98998.67
2022-09-15T09:20:36.321Z,98999.40
2022-09-15T09:23:10.404Z,98991.08
2022-09-15T09:25:41.766Z,99002.89
2022-09-15T09:28:37.382Z,99012.77
2022-09-15T09:31:08.458Z,99009.48
2022-09-15T09:34:17.711Z,98997.58
2022-09-15T09:36:58.467Z,98993.30
2022-09-15T09:39:28.295Z,98994.35
2022-09-15T09:41:56.253Z,98996.83
2022-09-15T09:44:32.025Z,98994.23
2022-09-15T09:47:01.849Z,99003.35
2022-09-15T09:49:34.773Z,99013.45
2022-09-15T09:52:04.931Z,99010.69
2022-09-15T09:54:35.443Z,99008.73
2022-09-15T09:57:36.602Z,99002.92
2022-09-15T10:00:32.166Z,99002.13
2022-09-15T10:03:11.810Z,99005.24
2022-09-15T10:05:40.500Z,99008.49
2022-09-15T10:08:19.447Z,99007.04
2022-09-15T10:10:57.113Z,98994.61
2022-09-15T10:13:27.167Z,98992.05
2022-09-15T10:16:20.922Z,98985.21
2022-09-15T10:18:54.318Z,98987.89
2022-09-15T10:21:24.881Z,98983.60
2022-09-15T10:23:53.257Z,98984.42
2022-09-15T10:26:32.293Z,98991.61
2022-09-15T10:29:13.166Z,98985.69
2022-09-15T10:31:42.023Z,98985.65
2022-09-15T10:34:27.802Z,98992.10
2022-09-15T10:37:19.732Z,98988.38
2022-09-15T10:39:54.285Z,98981.64
2022-09-15T10:42:40.236Z,98978.98
2022-09-15T10:45:18.375Z,98979.60
2022-09-15T10:48:20.139Z,98984.52
2022-09-15T10:50:50.936Z,98987.77
2022-09-15T10:53:49.799Z,98985.39
2022-09-15T10:56:41.978Z,98978.56
2022-09-15T10:59:14.203Z,98976.30
2022-09-15T11:01:58.372Z,98971.20
2022-09-15T11:04:52.274Z,98973.83
2022-09-15T11:07:38.318Z,98973.14
2022-09-15T11:10:30.114Z,98976.80
2022-09-15T11:13:19.614Z,98975.98
2022-09-15T11:15:55.245Z,98973.17
2022-09-15T11:18:45.207Z,98969.74
2022-09-15T11:21:33.498Z,98969.37
2022-09-15T11:24:29.044Z,98966.13
2022-09-15T11:27:03.536Z,98960.42
2022-09-15T11:29:52.445Z,98960.33
2022-09-15T11:32:26.055Z,98966.22
2022-09-15T11:35:04.986Z,98956.50
2022-09-15T11:37:40.707Z,98957.05
2022-09-15T11:40:34.582Z,98958.25
2022-09-15T11:43:25.377Z,98950.16
2022-09-15T11:45:59.598Z,98951.48
2022-09-15T11:48:42.771Z,98956.79
2022-09-15T11:51:14.045Z,98948.70
2022-09-15T11:53:41.915Z,98954.96
2022-09-15T11:56:22.368Z,98949.20
2022-09-15T11:59:28.694Z,98947.77
2022-09-15T12:02:16.089Z,98946.23
2022-09-15T12:05:26.634Z,98942.83
2022-09-15T12:08:14.530Z,98937.95
2022-09-15T12:10:57.076Z,98941.38
2022-09-15T12:13:27.565Z,98943.91
2022-09-15T12:16:07.126Z,98942.23
2022-09-15T12:18:51.387Z,98938.83
2022-09-15T12:21:54.764Z,98937.92
2022-09-15T12:24:51.329Z,98941.77
2022-09-15T12:27:21.363Z,98935.41
2022-09-15T12:29:58.372Z,98933.80
2022-09-15T12:32:32.110Z,98928.05
2022-09-15T12:35:17.773Z,98929.34
2022-09-15T12:37:50.096Z,98928.40
2022-09-15T12:40:30.786Z,98924.89
2022-09-15T12:42:59.354Z,98930.23
2022-09-15T12:45:36.372Z,98925.92
2022-09-15T12:48:15.913Z,98926.04
2022-09-15T12:50:53.327Z,98923.80
2022-09-15T12:53:26.035Z,98926.82
2022-09-15T12:55:57.104Z,98922.86
2022-09-15T12:58:45.711Z,98917.60
2022-09-15T13:01:19.686Z,98922.88
2022-09-15T13:03:49.046Z,98919.13
2022-09-15T13:06:21.861Z,98917.36
2022-09-15T13:09:01.897Z,98917.92
2022-09-15T13:11:38.612Z,98916.39
2022-09-15T13:14:20.854Z,98914.08
2022-09-15T13:17:07.306Z,98915.19
2022-09-15T13:19:46.716Z,98915.93
2022-09-15T13:22:27.423Z,98913.37
2022-09-15T13:25:05.472Z,98909.73
2022-09-15T13:27:40.931Z,98909.09
2022-09-15T13:30:20.875Z,98901.08
2022-09-15T13:33:08.109Z,98908.20
2022-09-15T13:35:54.624Z,98895.45
2022-09-15T13:38:40.756Z,98903.73
2022-09-15T13:41:20.926Z,98904.89
2022-09-15T13:44:27.951Z,98907.05
2022-09-15T13:47:21.321Z,98906.25
2022-09-15T13:50:11.928Z,98909.66
2022-09-15T13:52:48.907Z,98906.36
2022-09-15T13:55:25.520Z,98905.55
2022-09-15T14:00:55.618Z,98901.52
2022-09-15T14:03:39.628Z,98905.66
2022-09-15T14:06:18.188Z,98902.59
2022-09-15T14:08:50.156Z,98905.64
2022-09-15T14:11:26.695Z,98903.46
2022-09-15T14:13:57.523Z,98905.59
2022-09-15T14:16:28.701Z,98914.01
2022-09-15T14:18:58.595Z,98904.39
2022-09-15T14:21:30.515Z,98910.84
2022-09-15T14:24:04.100Z,98911.66
2022-09-15T14:26:35.768Z,98914.14
2022-09-15T14:29:06.245Z,98911.08
2022-09-15T14:31:43.724Z,98910.55
2022-09-15T14:34:16.738Z,98904.48
2022-09-15T14:36:47.296Z,98903.89
2022-09-15T14:39:20.816Z,98897.38
2022-09-15T14:41:50.332Z,98897.98
2022-09-15T14:47:28.203Z,98900.90
2022-09-15T14:50:08.193Z,98896.58
2022-09-15T14:52:43.552Z,98899.72
2022-09-15T14:55:19.001Z,98898.80
2022-09-15T14:57:54.276Z,98894.64
2022-09-15T15:00:28.764Z,98890.33
2022-09-15T15:03:22.694Z,98897.08
2022-09-15T15:06:02.831Z,98891.04
2022-09-15T15:08:42.280Z,98900.67
2022-09-15T15:11:12.723Z,98892.39
2022-09-15T15:13:45.507Z,98896.46
2022-09-15T15:16:21.489Z,98892.34
2022-09-15T15:18:51.583Z,98894.90
2022-09-15T15:21:35.178Z,98896.95
2022-09-15T15:24:15.523Z,98887.96
2022-09-15T15:26:46.143Z,98885.92
2022-09-15T15:29:43.821Z,98886.75
2022-09-15T15:32:17.526Z,98883.64
2022-09-15T15:34:54.369Z,98882.61
2022-09-15T15:37:27.716Z,98893.72
2022-09-15T15:40:04.557Z,98897.35
2022-09-15T15:42:32.938Z,98906.27
2022-09-15T15:45:06.381Z,98900.86
2022-09-15T15:47:37.064Z,98899.11
2022-09-15T15:50:29.316Z,98901.48
2022-09-15T15:52:57.385Z,98903.42
2022-09-15T15:55:35.857Z,98897.55
2022-09-15T15:58:05.591Z,98898.08
2022-09-15T16:00:39.698Z,98897.14
2022-09-15T16:03:09.199Z,98902.60
2022-09-15T16:05:38.642Z,98902.65
2022-09-15T16:08:12.918Z,98901.48
2022-09-15T16:10:44.711Z,98906.63
2022-09-15T16:13:18.216Z,98910.23
2022-09-15T16:15:46.526Z,98911.67
2022-09-15T16:18:15.107Z,98909.30
2022-09-15T16:20:43.586Z,98905.69
2022-09-15T16:23:22.443Z,98904.67
2022-09-15T16:26:05.812Z,98908.23
2022-09-15T16:28:36.719Z,98912.09
2022-09-15T16:31:06.502Z,98913.34
2022-09-15T16:33:38.090Z,98915.48
2022-09-15T16:36:08.962Z,98921.00
2022-09-15T16:38:37.099Z,98925.21
2022-09-15T16:41:15.628Z,98921.35
2022-09-15T16:44:19.416Z,98916.15
2022-09-15T16:46:48.287Z,98918.88
2022-09-15T16:49:16.754Z,98925.49
2022-09-15T16:51:45.194Z,98924.69
2022-09-15T16:54:23.174Z,98926.08
2022-09-15T16:57:19.615Z,98923.03
2022-09-15T16:59:51.675Z,98917.23
2022-09-15T17:02:24.814Z,98917.16
2022-09-15T17:04:53.697Z,98924.13
2022-09-15T17:07:22.586Z,98928.70
2022-09-15T17:09:52.971Z,98924.41
2022-09-15T17:12:32.968Z,98929.48
2022-09-15T17:15:17.583Z,98927.20
2022-09-15T17:17:48.421Z,98937.86
2022-09-15T17:20:19.215Z,98942.85
2022-09-15T17:22:48.367Z,98940.67
2022-09-15T17:25:40.209Z,98938.59
2022-09-15T17:28:09.459Z,98938.23
2022-09-15T17:30:56.188Z,98936.98
2022-09-15T17:33:24.947Z,98941.73
2022-09-15T17:36:14.299Z,98949.79
2022-09-15T17:38:49.268Z,98947.30
2022-09-15T17:41:22.581Z,98947.65
2022-09-15T17:43:52.703Z,98946.43
2022-09-15T17:46:26.429Z,98945.06
2022-09-15T17:49:04.094Z,98947.89
2022-09-15T17:51:35.614Z,98956.05
2022-09-15T17:54:09.075Z,98958.22
2022-09-15T17:56:40.170Z,98967.17
2022-09-15T17:59:13.060Z,98967.04
2022-09-15T18:01:55.852Z,98964.32
2022-09-15T18:04:24.597Z,98973.21
2022-09-15T18:06:55.816Z,98974.45
2022-09-15T18:09:25.655Z,98972.29
2022-09-15T18:11:56.687Z,98982.96
2022-09-15T18:14:27.324Z,98991.56
2022-09-15T18:16:55.547Z,98985.60
2022-09-15T18:19:23.947Z,98983.42
2022-09-15T18:21:54.105Z,98985.77
2022-09-15T18:24:29.376Z,98986.52
2022-09-15T18:26:57.208Z,98988.61
2022-09-15T18:29:27.448Z,98994.16
2022-09-15T18:31:58.046Z,98990.39
2022-09-15T18:34:32.399Z,98992.66
2022-09-15T18:37:10.343Z,98996.86
2022-09-15T18:39:41.857Z,99004.25
2022-09-15T18:42:13.366Z,99006.38
2022-09-15T18:44:43.087Z,98999.98
2022-09-15T18:47:14.474Z,99003.30
2022-09-15T18:49:45.659Z,99007.30
2022-09-15T18:52:16.453Z,99010.66
2022-09-15T18:54:44.938Z,99013.54
2022-09-15T18:57:15.820Z,99015.09
2022-09-15T18:59:48.906Z,99013.48
2022-09-15T19:02:20.764Z,99009.98
2022-09-15T19:04:51.420Z,99007.48
2022-09-15T19:07:28.295Z,99007.98
2022-09-15T19:09:56.873Z,99011.80
2022-09-15T19:12:34.756Z,99020.83
2022-09-15T19:15:10.860Z,99022.66
2022-09-15T19:17:44.372Z,99028.17
2022-09-15T19:20:24.577Z,99032.02
2022-09-15T19:22:55.483Z,99033.30
2022-09-15T19:25:24.332Z,99035.44
2022-09-15T19:27:52.785Z,99037.05
2022-09-15T19:30:21.344Z,99040.15
2022-09-15T19:33:05.658Z,99038.65
2022-09-15T19:35:37.101Z,99038.98
2022-09-15T19:38:12.037Z,99037.10
2022-09-15T19:40:48.989Z,99039.83
2022-09-15T19:43:16.897Z,99037.92
2022-09-15T19:45:48.172Z,99040.31
2022-09-15T19:48:17.433Z,99043.59
2022-09-15T19:50:47.986Z,99041.79
2022-09-15T19:53:16.410Z,99036.96
2022-09-15T19:55:52.468Z,99038.63
2022-09-15T19:58:20.622Z,99043.45
2022-09-15T20:00:55.984Z,99047.94
2022-09-15T20:03:29.567Z,99048.35
2022-09-15T20:05:58.602Z,99049.45
2022-09-15T20:08:34.037Z,99049.41
2022-09-15T20:11:09.782Z,99048.44
2022-09-15T20:13:49.756Z,99054.08
2022-09-15T20:16:25.478Z,99056.39
2022-09-15T20:19:04.049Z,99055.34
2022-09-15T20:21:53.018Z,99059.74
2022-09-15T20:24:24.014Z,99056.72
2022-09-15T20:27:03.183Z,99054.75
2022-09-15T20:29:33.531Z,99052.60
2022-09-15T20:32:06.798Z,99052.11
2022-09-15T20:34:35.197Z,99052.95
2022-09-15T20:37:03.516Z,99055.52
2022-09-15T20:39:34.631Z,99055.40
2022-09-15T20:42:04.880Z,99053.29
2022-09-15T20:44:40.025Z,99057.52
2022-09-15T20:47:08.206Z,99053.77
2022-09-15T20:49:38.516Z,99055.90
2022-09-15T20:52:06.450Z,99054.10
2022-09-15T20:54:37.922Z,99050.54
2022-09-15T20:57:11.017Z,99050.75
2022-09-15T20:59:58.660Z,99050.27
2022-09-15T21:02:27.156Z,99048.36
2022-09-15T21:04:55.407Z,99051.22
2022-09-15T21:07:23.781Z,99050.27
2022-09-15T21:10:04.400Z,99053.70
2022-09-15T21:12:39.126Z,99043.96
2022-09-15T21:15:14.064Z,99057.56
2022-09-15T21:17:50.742Z,99057.27
2022-09-15T21:21:03.299Z,99060.51
2022-09-15T21:23:41.226Z,99060.88
2022-09-15T21:26:14.396Z,99066.38
2022-09-15T21:29:21.173Z,99066.61
2022-09-15T21:32:04.552Z,99068.08
2022-09-15T21:34:39.056Z,99073.14
2022-09-15T21:37:37.666Z,99068.73
2022-09-15T21:40:22.530Z,99073.28
2022-09-15T21:43:18.708Z,99071.34
2022-09-15T21:46:16.371Z,99077.27
2022-09-15T21:49:24.564Z,99078.90
2022-09-15T21:51:58.181Z,99078.95
2022-09-15T21:54:43.923Z,99080.57
2022-09-15T21:57:39.920Z,99088.29
2022-09-15T22:00:41.070Z,99087.52
2022-09-15T22:03:14.286Z,99088.39
2022-09-15T22:05:53.044Z,99090.42
2022-09-15T22:08:33.359Z,99091.34
2022-09-15T22:11:15.179Z,99091.73
2022-09-15T22:14:08.896Z,99094.98
2022-09-15T22:16:50.415Z,99099.38
2022-09-15T22:19:48.676Z,99110.84
2022-09-15T22:22:44.507Z,99105.92
2022-09-15T22:25:21.673Z,99109.76
2022-09-15T22:27:56.903Z,99108.84
2022-09-15T22:30:42.476Z,99116.13
2022-09-15T22:33:28.056Z,99123.54
2022-09-15T22:36:07.753Z,99129.33
2022-09-15T22:38:58.726Z,99127.01
2022-09-15T22:42:16.060Z,99126.30
2022-09-15T22:45:15.574Z,99123.13
2022-09-15T22:47:49.585Z,99124.33
2022-09-15T22:50:20.978Z,99125.50
2022-09-15T22:53:08.119Z,99131.14
2022-09-15T22:56:31.461Z,99132.59
2022-09-15T22:59:00.475Z,99128.69
2022-09-15T23:01:38.347Z,99136.09
2022-09-15T23:04:29.871Z,99136.84
2022-09-15T23:07:05.098Z,99131.67
2022-09-15T23:09:40.734Z,99130.43
2022-09-15T23:12:18.790Z,99130.05
2022-09-15T23:15:04.245Z,99127.28
2022-09-15T23:17:39.765Z,99126.38
2022-09-15T23:20:09.663Z,99127.33
2022-09-15T23:22:37.819Z,99128.06
2022-09-15T23:25:38.972Z,99125.11
2022-09-15T23:28:41.663Z,99123.13
2022-09-15T23:31:23.050Z,99118.86
2022-09-15T23:34:01.463Z,99120.06
2022-09-15T23:37:04.132Z,99124.31
2022-09-15T23:39:41.228Z,99127.45
2022-09-15T23:42:21.658Z,99130.79
2022-09-15T23:45:17.299Z,99128.28
2022-09-15T23:47:53.550Z,99127.23
2022-09-15T23:50:39.746Z,99130.59
2022-09-15T23:53:20.242Z,99134.61
2022-09-15T23:56:29.874Z,99130.17
2022-09-15T23:59:06.628Z,99136.44
